Time;durP1;ratioP1;P1;durP2;ratioP2;P2;SDS_P1;SDS_P2;PMS_P1;PMS_P2;Temp;Humidity;BMP_temperature;BMP_pressure;BME280_temperature;BME280_humidity;BME280_pressure;Samples;Min_cycle;Max_cycle;Signal;HPM_P1;HPM_P2
2022/04/19 00:00:35;;;;;;;7.77;4.73;;;10.20;73.90;;;;;;4984742;28;20212;-78
2022/04/19 00:03:04;;;;;;;8.03;4.80;;;10.20;74.00;;;;;;4982426;28;20200;-79
2022/04/19 00:05:33;;;;;;;6.33;3.90;;;10.20;73.90;;;;;;4982473;28;20207;-80
2022/04/19 00:08:02;;;;;;;7.93;4.93;;;10.20;74.20;;;;;;4981329;28;20208;-79
2022/04/19 00:10:32;;;;;;;8.77;4.57;;;10.20;74.20;;;;;;4983159;28;20212;-79
2022/04/19 00:13:02;;;;;;;6.63;4.33;;;10.10;74.20;;;;;;4981756;28;20223;-79
2022/04/19 00:15:32;;;;;;;6.27;3.90;;;10.10;74.20;;;;;;4981043;28;20202;-82
2022/04/19 00:18:01;;;;;;;9.13;4.87;;;10.10;74.20;;;;;;4980124;28;20722;-77
2022/04/19 00:20:30;;;;;;;7.93;5.13;;;10.10;74.30;;;;;;4982891;28;20208;-79
2022/04/19 00:22:58;;;;;;;6.87;4.67;;;10.10;74.30;;;;;;4982206;28;20248;-80
2022/04/19 00:25:27;;;;;;;7.43;5.03;;;10.10;74.20;;;;;;4981374;28;20204;-77
2022/04/19 00:27:57;;;;;;;7.30;5.03;;;10.10;74.40;;;;;;4981955;28;20189;-80
2022/04/19 00:30:25;;;;;;;7.73;4.90;;;10.10;74.40;;;;;;4982099;28;20244;-79
2022/04/19 00:32:53;;;;;;;7.67;4.57;;;10.00;74.70;;;;;;4981765;28;21056;-80
2022/04/19 00:35:23;;;;;;;6.20;4.17;;;10.00;74.60;;;;;;4981671;28;20212;-78
2022/04/19 00:37:52;;;;;;;7.73;4.13;;;10.00;74.70;;;;;;4982561;28;20754;-79
2022/04/19 00:40:20;;;;;;;7.23;4.40;;;10.00;74.80;;;;;;4981799;28;20200;-78
2022/04/19 00:42:49;;;;;;;10.00;5.00;;;10.00;74.90;;;;;;4983455;28;20205;-81
2022/04/19 00:45:18;;;;;;;8.37;5.30;;;10.00;75.10;;;;;;4981929;28;20197;-78
2022/04/19 00:47:47;;;;;;;7.47;4.93;;;10.00;75.20;;;;;;4982957;28;20213;-80
2022/04/19 00:50:15;;;;;;;7.90;4.63;;;9.90;75.10;;;;;;4982366;28;20197;-79
2022/04/19 00:52:44;;;;;;;7.87;4.63;;;9.90;75.10;;;;;;4980810;28;20228;-79
2022/04/19 00:55:13;;;;;;;9.03;5.07;;;9.90;75.20;;;;;;4982708;28;20891;-79
2022/04/19 00:57:43;;;;;;;6.67;4.40;;;9.90;75.20;;;;;;4982938;28;20207;-78
2022/04/19 01:00:12;;;;;;;7.03;4.80;;;9.90;75.30;;;;;;4980668;28;20199;-79
2022/04/19 01:02:42;;;;;;;9.43;5.20;;;9.90;75.30;;;;;;4982451;28;20197;-78
2022/04/19 01:05:11;;;;;;;8.87;4.87;;;9.90;75.40;;;;;;4980400;28;20213;-79
2022/04/19 01:07:40;;;;;;;7.80;4.80;;;9.90;75.50;;;;;;4982753;28;20201;-79
2022/04/19 01:10:09;;;;;;;8.20;5.23;;;9.90;75.60;;;;;;4980078;28;20208;-79
2022/04/19 01:15:24;;;;;;;8.70;5.13;;;9.80;75.70;;;;;;4982219;28;20200;-82
2022/04/19 01:17:54;;;;;;;10.13;5.00;;;9.90;75.90;;;;;;4982375;28;20420;-78
2022/04/19 01:20:22;;;;;;;9.03;5.93;;;9.80;75.90;;;;;;4979673;28;20215;-81
2022/04/19 01:22:52;;;;;;;9.73;5.60;;;9.80;75.90;;;;;;4980443;28;20196;-79
2022/04/19 01:25:21;;;;;;;7.30;4.57;;;9.80;76.00;;;;;;4983474;28;20933;-80
2022/04/19 01:27:50;;;;;;;7.50;4.77;;;9.80;76.00;;;;;;4981939;28;20208;-80
2022/04/19 01:30:20;;;;;;;8.10;5.40;;;9.80;76.10;;;;;;4979682;28;20239;-79
2022/04/19 01:32:48;;;;;;;7.53;5.10;;;9.90;76.10;;;;;;4981602;28;20233;-78
2022/04/19 01:35:19;;;;;;;8.90;4.87;;;9.80;76.10;;;;;;4981035;28;20204;-83
2022/04/19 01:37:49;;;;;;;7.83;5.07;;;9.90;76.20;;;;;;4982094;28;20193;-79
2022/04/19 01:40:19;;;;;;;8.87;5.73;;;9.90;76.10;;;;;;4981403;28;20197;-77
2022/04/19 01:42:49;;;;;;;9.87;5.63;;;9.90;76.20;;;;;;4982216;28;20185;-79
2022/04/19 01:45:18;;;;;;;11.83;5.90;;;9.90;76.20;;;;;;4982501;28;20193;-78
2022/04/19 01:47:47;;;;;;;9.90;5.50;;;9.90;76.20;;;;;;4982304;28;20232;-79
2022/04/19 01:50:18;;;;;;;9.60;5.73;;;9.90;76.50;;;;;;4982676;28;20701;-81
2022/04/19 01:52:48;;;;;;;9.00;5.50;;;9.90;76.30;;;;;;4982991;28;20204;-79
2022/04/19 01:55:20;;;;;;;9.07;5.83;;;9.90;76.30;;;;;;4981428;28;20197;-80
2022/04/19 01:57:50;;;;;;;9.50;6.27;;;9.90;76.50;;;;;;4982586;28;20200;-78
2022/04/19 02:00:19;;;;;;;8.63;5.37;;;9.90;76.50;;;;;;4981258;28;20208;-79
2022/04/19 02:02:49;;;;;;;10.37;5.90;;;9.90;76.50;;;;;;4981989;28;20208;-79
2022/04/19 02:05:17;;;;;;;9.90;5.87;;;9.90;76.60;;;;;;4981417;28;20216;-78
2022/04/19 02:07:46;;;;;;;10.07;6.00;;;9.90;76.60;;;;;;4980135;28;20212;-78
2022/04/19 02:10:17;;;;;;;11.17;6.10;;;9.90;76.80;;;;;;4980644;28;20231;-79
2022/04/19 02:12:46;;;;;;;9.67;6.33;;;9.90;76.80;;;;;;4980405;28;20208;-79
2022/04/19 02:15:15;;;;;;;8.90;5.70;;;9.90;76.80;;;;;;4982269;28;20204;-78
2022/04/19 02:17:45;;;;;;;8.50;5.93;;;9.90;76.80;;;;;;4981160;28;20295;-79
2022/04/19 02:20:14;;;;;;;11.57;6.50;;;9.90;76.90;;;;;;4983323;28;20208;-79
2022/04/19 02:22:43;;;;;;;9.43;5.83;;;9.90;76.90;;;;;;4982078;28;20201;-79
2022/04/19 02:25:13;;;;;;;9.87;6.03;;;9.90;76.90;;;;;;4984461;28;20209;-78
2022/04/19 02:27:43;;;;;;;11.97;6.27;;;9.90;76.90;;;;;;4985798;28;20252;-79
2022/04/19 02:30:15;;;;;;;9.27;6.07;;;9.90;77.10;;;;;;4983976;28;20237;-83
2022/04/19 02:32:45;;;;;;;13.40;7.27;;;9.90;77.20;;;;;;4982022;28;20205;-79
2022/04/19 02:35:15;;;;;;;8.67;6.23;;;9.90;77.10;;;;;;4982186;28;20208;-80
2022/04/19 02:37:49;;;;;;;9.33;6.10;;;9.90;77.20;;;;;;4985824;28;20197;-81
2022/04/19 02:40:19;;;;;;;11.45;7.22;;;9.90;77.20;;;;;;4984122;28;20442;-78
2022/04/19 02:42:48;;;;;;;14.40;6.90;;;9.90;78.60;;;;;;4985500;28;20193;-78
2022/04/19 02:45:19;;;;;;;10.63;6.30;;;9.90;78.30;;;;;;4984239;28;20209;-81
2022/04/19 02:47:48;;;;;;;9.83;6.40;;;9.90;78.10;;;;;;4983384;28;20212;-79
2022/04/19 02:50:16;;;;;;;10.57;6.43;;;9.90;78.00;;;;;;4984756;28;20970;-79
2022/04/19 02:52:45;;;;;;;12.27;6.27;;;9.90;77.80;;;;;;4983543;28;20220;-79
2022/04/19 02:55:13;;;;;;;10.93;6.73;;;10.00;77.90;;;;;;4986546;28;20567;-80
2022/04/19 02:57:42;;;;;;;10.80;6.40;;;10.00;77.80;;;;;;4983275;28;20210;-79
2022/04/19 03:00:11;;;;;;;10.60;6.43;;;9.90;77.80;;;;;;4980102;28;20663;-81
2022/04/19 03:02:41;;;;;;;11.10;6.47;;;10.00;77.80;;;;;;4983954;28;20208;-79
2022/04/19 03:05:10;;;;;;;9.33;6.20;;;10.00;77.80;;;;;;4981796;28;20201;-77
2022/04/19 03:07:38;;;;;;;11.37;6.77;;;10.00;77.90;;;;;;4983553;28;20783;-79
2022/04/19 03:10:07;;;;;;;11.00;7.00;;;10.00;77.90;;;;;;4984018;28;20827;-79
2022/04/19 03:12:36;;;;;;;11.03;6.77;;;9.90;77.80;;;;;;4982965;28;20210;-80
2022/04/19 03:15:05;;;;;;;8.67;5.83;;;10.00;77.90;;;;;;4983660;28;20229;-79
2022/04/19 03:17:34;;;;;;;10.47;6.53;;;10.00;77.80;;;;;;4984354;28;20205;-79
2022/04/19 03:20:07;;;;;;;9.48;6.28;;;10.00;77.80;;;;;;4984706;28;20420;-79
2022/04/19 03:28:09;;;;;;;13.27;6.93;;;10.00;78.00;;;;;;4941694;28;20674;-79
2022/04/19 03:30:39;;;;;;;16.60;6.80;;;10.00;78.00;;;;;;4941045;28;20285;-79
2022/04/19 03:33:08;;;;;;;12.03;6.73;;;10.00;78.10;;;;;;4941170;28;20222;-78
2022/04/19 03:35:38;;;;;;;12.20;6.37;;;10.00;78.20;;;;;;4942041;28;20210;-79
2022/04/19 03:38:07;;;;;;;13.97;6.97;;;10.00;78.30;;;;;;4940840;28;20206;-79
2022/04/19 03:40:35;;;;;;;13.60;7.07;;;10.00;78.30;;;;;;4959200;28;20699;-79
2022/04/19 03:43:07;;;;;;;11.60;6.37;;;10.00;78.30;;;;;;4984454;28;20200;-79
2022/04/19 03:45:36;;;;;;;10.77;7.00;;;10.00;78.30;;;;;;4984371;28;20189;-78
2022/04/19 03:48:05;;;;;;;9.60;6.23;;;10.00;78.40;;;;;;4983631;28;20208;-79
2022/04/19 03:50:34;;;;;;;14.03;6.90;;;10.00;78.50;;;;;;4984534;28;20837;-81
2022/04/19 03:53:07;;;;;;;16.03;7.50;;;10.00;78.50;;;;;;4983485;28;20615;-79
2022/04/19 03:55:35;;;;;;;13.13;7.40;;;10.00;78.60;;;;;;4983431;28;20698;-79
2022/04/19 03:58:04;;;;;;;16.70;7.33;;;10.00;78.60;;;;;;4982217;28;20209;-79
2022/04/19 04:00:33;;;;;;;12.60;7.83;;;10.00;78.60;;;;;;4981905;28;20204;-79
2022/04/19 04:03:01;;;;;;;16.03;7.00;;;10.10;78.60;;;;;;4981065;28;20703;-79
2022/04/19 04:05:30;;;;;;;10.90;6.70;;;10.10;78.70;;;;;;4982340;28;20235;-78
2022/04/19 04:07:59;;;;;;;10.20;6.70;;;10.10;78.70;;;;;;4982046;28;20207;-78
2022/04/19 04:10:29;;;;;;;11.47;7.33;;;10.10;78.70;;;;;;4983307;28;20200;-80
2022/04/19 04:12:59;;;;;;;10.13;6.67;;;10.10;78.80;;;;;;4982226;28;20199;-83
2022/04/19 04:15:28;;;;;;;12.17;6.60;;;10.10;78.80;;;;;;4983157;28;20196;-79
2022/04/19 04:17:59;;;;;;;13.27;7.20;;;10.10;78.90;;;;;;4982456;28;20348;-81
2022/04/19 04:20:27;;;;;;;12.27;7.37;;;10.10;79.20;;;;;;4983655;28;20205;-79
2022/04/19 04:22:56;;;;;;;13.07;6.47;;;10.20;79.20;;;;;;4983225;28;20867;-79
2022/04/19 04:25:24;;;;;;;9.53;6.00;;;10.10;79.40;;;;;;4983528;28;20315;-79
2022/04/19 04:27:54;;;;;;;14.03;7.27;;;10.10;79.40;;;;;;4982816;28;20200;-77
2022/04/19 04:30:22;;;;;;;13.93;7.43;;;10.10;79.30;;;;;;4981855;28;20242;-79
2022/04/19 04:32:50;;;;;;;13.77;7.97;;;10.10;79.50;;;;;;4982371;28;20205;-78
2022/04/19 04:35:19;;;;;;;15.67;7.43;;;10.10;79.60;;;;;;4981592;28;20216;-79
2022/04/19 04:37:47;;;;;;;12.73;7.23;;;10.10;79.50;;;;;;4982018;28;20200;-78
2022/04/19 04:40:16;;;;;;;17.20;7.77;;;10.10;79.50;;;;;;4983535;28;20197;-78
2022/04/19 04:42:44;;;;;;;12.93;7.47;;;10.10;79.50;;;;;;4983490;28;20201;-77
2022/04/19 04:45:14;;;;;;;16.07;8.03;;;10.20;79.60;;;;;;4983635;28;20207;-78
2022/04/19 04:50:28;;;;;;;15.15;8.77;;;10.10;80.00;;;;;;4982702;28;20452;-77
2022/04/19 04:52:57;;;;;;;12.50;7.70;;;10.10;80.80;;;;;;4983470;28;20616;-79
2022/04/19 04:55:25;;;;;;;17.47;8.00;;;10.10;81.30;;;;;;4981905;28;20386;-77
2022/04/19 04:57:57;;;;;;;11.77;7.70;;;10.00;81.50;;;;;;4984849;28;20208;-78
2022/04/19 05:00:28;;;;;;;17.30;7.97;;;10.00;81.60;;;;;;4982862;28;20813;-80
2022/04/19 05:02:56;;;;;;;11.17;7.20;;;10.00;81.80;;;;;;4981462;28;20284;-79
2022/04/19 05:05:25;;;;;;;12.77;7.40;;;10.00;82.00;;;;;;4984052;28;20200;-79
2022/04/19 05:07:53;;;;;;;16.27;8.00;;;9.90;82.70;;;;;;4983800;28;20197;-78
2022/04/19 05:10:27;;;;;;;12.67;7.30;;;9.90;83.00;;;;;;4983566;28;20287;-79
2022/04/19 05:13:08;;;;;;;17.97;7.53;;;9.90;83.00;;;;;;4953849;28;20196;-79
2022/04/19 05:16:24;;;;;;;12.73;7.70;;;9.90;82.80;;;;;;4978546;28;20236;-78
2022/04/19 05:19:22;;;;;;;11.40;6.67;;;9.90;82.80;;;;;;4924273;28;20223;-78
2022/04/19 05:21:51;;;;;;;13.70;7.20;;;9.90;82.80;;;;;;4956209;28;20201;-78
2022/04/19 05:24:19;;;;;;;11.53;6.90;;;9.90;82.70;;;;;;4944372;28;20815;-78
2022/04/19 05:26:47;;;;;;;10.23;6.70;;;9.90;82.80;;;;;;4980795;28;20224;-78
2022/04/19 05:29:16;;;;;;;9.87;5.77;;;9.90;83.40;;;;;;4985653;28;20525;-81
2022/04/19 05:31:46;;;;;;;11.30;7.03;;;9.90;84.00;;;;;;4985721;28;20208;-77
2022/04/19 05:34:14;;;;;;;10.00;6.50;;;9.90;83.80;;;;;;4989777;28;20228;-80
2022/04/19 05:36:43;;;;;;;11.90;5.97;;;9.90;84.60;;;;;;4985255;28;20200;-79
2022/04/19 05:39:11;;;;;;;11.17;5.67;;;9.90;83.80;;;;;;4990664;28;20208;-79
2022/04/19 05:41:40;;;;;;;9.67;5.67;;;9.80;84.50;;;;;;4984509;28;20288;-81
2022/04/19 05:44:09;;;;;;;9.23;6.37;;;9.80;84.10;;;;;;4982694;28;20207;-80
2022/04/19 05:46:37;;;;;;;8.13;5.27;;;9.80;84.20;;;;;;4982510;28;20746;-79
2022/04/19 05:49:07;;;;;;;10.27;4.63;;;9.80;84.00;;;;;;4982916;28;20264;-80
2022/04/19 05:51:36;;;;;;;7.63;4.40;;;9.80;83.90;;;;;;4984864;28;20227;-79
2022/04/19 05:54:04;;;;;;;8.63;5.13;;;9.80;83.70;;;;;;4982097;28;20205;-78
2022/04/19 05:56:33;;;;;;;8.43;5.10;;;9.80;84.00;;;;;;4986102;28;20243;-79
2022/04/19 05:59:02;;;;;;;7.97;5.03;;;9.80;83.90;;;;;;4986231;28;20204;-77
2022/04/19 06:04:51;;;;;;;7.73;5.00;;;9.80;84.00;;;;;;4986489;28;20197;-79
2022/04/19 06:07:20;;;;;;;8.50;5.03;;;9.80;84.40;;;;;;4985721;28;21635;-80
2022/04/19 06:09:57;;;;;;;8.47;5.70;;;9.80;84.40;;;;;;4988651;28;20619;-81
2022/04/19 06:12:31;;;;;;;10.73;6.50;;;9.80;84.80;;;;;;4971097;28;20444;-81
2022/04/19 06:15:01;;;;;;;12.03;6.60;;;9.70;85.30;;;;;;4989349;28;20267;-81
2022/04/19 06:17:35;;;;;;;9.37;5.70;;;9.80;85.80;;;;;;4991714;28;20205;-80
2022/04/19 06:20:09;;;;;;;9.83;5.57;;;9.70;85.80;;;;;;4991685;28;20833;-81
2022/04/19 06:22:41;;;;;;;7.90;5.33;;;9.70;85.80;;;;;;4989927;28;20203;-80
2022/04/19 06:25:10;;;;;;;9.77;5.13;;;9.70;85.70;;;;;;4988552;28;20193;-79
2022/04/19 06:27:39;;;;;;;10.27;5.87;;;9.70;85.80;;;;;;4990004;28;20207;-82
2022/04/19 06:30:08;;;;;;;9.30;5.40;;;9.70;86.10;;;;;;4971265;28;20256;-79
2022/04/19 06:32:37;;;;;;;10.60;6.00;;;9.70;85.90;;;;;;4966930;28;20225;-81
2022/04/19 06:35:09;;;;;;;8.33;5.20;;;9.70;86.20;;;;;;4967889;28;20245;-85
2022/04/19 06:37:38;;;;;;;8.87;5.60;;;9.70;86.60;;;;;;4967865;28;20899;-81
2022/04/19 06:40:08;;;;;;;9.63;6.17;;;9.60;86.30;;;;;;4967771;28;20197;-80
2022/04/19 06:42:36;;;;;;;11.40;5.80;;;9.60;86.50;;;;;;4966140;28;20247;-80
2022/04/19 06:45:08;;;;;;;8.73;5.30;;;9.60;86.60;;;;;;4967490;28;20670;-81
2022/04/19 06:47:38;;;;;;;10.03;5.63;;;9.60;86.80;;;;;;4966751;28;20205;-82
2022/04/19 06:50:12;;;;;;;11.37;6.30;;;9.60;86.60;;;;;;4968790;28;20202;-81
2022/04/19 06:52:43;;;;;;;8.20;5.20;;;9.60;86.90;;;;;;4966400;28;20742;-80
2022/04/19 06:55:11;;;;;;;8.30;5.00;;;9.50;87.20;;;;;;4964411;28;20229;-81
2022/04/19 06:57:41;;;;;;;6.77;4.60;;;9.50;87.40;;;;;;4965085;28;20763;-80
2022/04/19 07:00:23;;;;;;;8.67;4.77;;;9.50;87.30;;;;;;4965791;28;20659;-85
2022/04/19 07:02:54;;;;;;;10.20;4.80;;;9.60;87.10;;;;;;4966475;28;20703;-84
2022/04/19 07:05:23;;;;;;;6.63;4.10;;;9.60;87.00;;;;;;4963114;28;20197;-83
2022/04/19 07:07:54;;;;;;;6.40;3.83;;;9.50;87.00;;;;;;4964742;28;20656;-86
2022/04/19 07:10:23;;;;;;;7.47;4.47;;;9.60;86.90;;;;;;4965241;28;20197;-85
2022/04/19 07:12:54;;;;;;;8.47;4.23;;;9.60;86.80;;;;;;4962990;28;20208;-85
2022/04/19 07:15:23;;;;;;;6.97;4.57;;;9.60;87.10;;;;;;4964698;28;20541;-85
2022/04/19 07:17:55;;;;;;;6.53;3.93;;;9.60;86.90;;;;;;4964631;28;20268;-83
2022/04/19 07:29:00;;;;;;;5.13;3.67;;;9.70;86.90;;;;;;4957095;28;20320;-85
2022/04/19 07:31:31;;;;;;;9.00;3.77;;;9.60;86.80;;;;;;4962630;28;20210;-83
2022/04/19 07:34:00;;;;;;;10.93;4.27;;;9.70;86.70;;;;;;4961525;28;20291;-84
2022/04/19 07:36:30;;;;;;;8.10;4.10;;;9.70;86.60;;;;;;4962517;28;20216;-85
2022/04/19 07:38:59;;;;;;;5.53;3.40;;;9.70;86.50;;;;;;4964828;28;20684;-84
2022/04/19 07:41:29;;;;;;;5.80;3.60;;;9.80;86.60;;;;;;4963457;28;20261;-84
2022/04/19 07:43:58;;;;;;;5.27;3.87;;;9.80;86.50;;;;;;4963394;28;20803;-82
2022/04/19 07:46:28;;;;;;;8.13;3.70;;;9.70;86.20;;;;;;4962977;28;20271;-77
2022/04/19 07:48:57;;;;;;;4.07;2.83;;;9.70;85.80;;;;;;4966349;28;20643;-86
2022/04/19 07:51:26;;;;;;;4.37;2.93;;;9.70;85.80;;;;;;4963764;28;20212;-85
2022/04/19 07:53:57;;;;;;;5.57;3.60;;;9.70;85.80;;;;;;4964198;28;20230;-86
2022/04/19 07:56:29;;;;;;;6.60;3.93;;;9.70;85.70;;;;;;4964130;28;20743;-88
2022/04/19 07:59:05;;;;;;;7.03;3.37;;;9.70;85.60;;;;;;4964124;28;20212;-85
2022/04/19 08:01:34;;;;;;;3.50;2.70;;;9.80;85.60;;;;;;4964642;28;20276;-84
2022/04/19 08:04:03;;;;;;;7.00;3.33;;;9.70;85.30;;;;;;4962322;28;20206;-86
2022/04/19 08:06:33;;;;;;;5.27;3.20;;;9.80;85.40;;;;;;4963610;28;20231;-85
2022/04/19 08:09:04;;;;;;;4.90;3.33;;;9.80;85.40;;;;;;4963095;28;20575;-87
2022/04/19 08:11:32;;;;;;;7.50;3.67;;;9.80;85.50;;;;;;4959467;28;20708;-84
2022/04/19 08:14:02;;;;;;;5.80;3.80;;;9.80;85.50;;;;;;4962163;28;20202;-85
2022/04/19 08:16:31;;;;;;;5.47;3.20;;;9.80;85.60;;;;;;4962557;28;20255;-84
2022/04/19 08:18:59;;;;;;;4.87;3.23;;;9.80;85.50;;;;;;4961770;28;20284;-85
2022/04/19 08:21:28;;;;;;;6.23;3.40;;;9.90;85.60;;;;;;4964540;28;20193;-85
2022/04/19 08:23:57;;;;;;;6.70;3.13;;;9.90;85.60;;;;;;4966236;28;20204;-85
2022/04/19 08:26:27;;;;;;;4.37;2.80;;;9.90;85.50;;;;;;4965802;28;20668;-85
2022/04/19 08:28:55;;;;;;;4.87;3.00;;;9.90;85.40;;;;;;4964181;28;20253;-82
2022/04/19 08:31:24;;;;;;;4.90;3.00;;;10.00;85.30;;;;;;4961528;28;20206;-84
2022/04/19 08:33:52;;;;;;;6.10;3.10;;;10.00;85.10;;;;;;4961268;28;20259;-85
2022/04/19 08:36:21;;;;;;;4.47;3.27;;;10.10;85.10;;;;;;4962118;28;20803;-85
2022/04/19 08:38:49;;;;;;;5.87;3.10;;;10.10;85.10;;;;;;4964425;28;20201;-84
2022/04/19 08:41:19;;;;;;;5.60;3.17;;;10.20;85.10;;;;;;4964389;28;20699;-81
2022/04/19 08:43:51;;;;;;;6.07;3.83;;;10.20;85.10;;;;;;4963709;28;20216;-85
2022/04/19 08:46:20;;;;;;;6.33;2.87;;;10.30;85.00;;;;;;4964158;28;20202;-81
2022/04/19 08:48:49;;;;;;;5.13;3.17;;;10.30;84.80;;;;;;4963816;28;20208;-80
2022/04/19 08:51:21;;;;;;;4.43;2.70;;;10.40;84.70;;;;;;4961921;28;21116;-81
2022/04/19 08:59:35;;;;;;;4.50;3.07;;;10.50;84.50;;;;;;4965501;28;20197;-84
2022/04/19 09:02:03;;;;;;;8.47;3.03;;;10.50;84.30;;;;;;4965506;28;20193;-84
2022/04/19 09:04:33;;;;;;;4.57;2.87;;;10.50;84.10;;;;;;4963538;28;20204;-85
2022/04/19 09:07:06;;;;;;;3.63;2.40;;;10.50;84.10;;;;;;4963373;28;20220;-86
2022/04/19 09:09:41;;;;;;;4.70;2.43;;;10.50;83.80;;;;;;4964329;28;20201;-85
2022/04/19 09:12:11;;;;;;;3.53;2.33;;;10.50;83.50;;;;;;4963015;28;20289;-84
2022/04/19 09:14:57;;;;;;;4.07;2.27;;;10.50;83.00;;;;;;4961957;28;20292;-80
2022/04/19 09:17:36;;;;;;;3.53;2.47;;;10.50;82.90;;;;;;4964141;28;20220;-83
2022/04/19 09:20:15;;;;;;;4.50;2.67;;;10.50;83.00;;;;;;4964502;28;20193;-86
2022/04/19 09:22:44;;;;;;;4.03;2.30;;;10.60;83.10;;;;;;4962970;28;20190;-83
2022/04/19 09:25:18;;;;;;;5.27;2.60;;;10.60;83.00;;;;;;4961177;28;20197;-82
2022/04/19 09:27:47;;;;;;;5.03;3.10;;;10.60;82.80;;;;;;4963783;28;20207;-82
2022/04/19 09:30:23;;;;;;;3.87;2.50;;;10.70;82.80;;;;;;4967531;28;20722;-84
2022/04/19 09:33:09;;;;;;;3.53;2.60;;;10.70;82.70;;;;;;4965269;28;20205;-85
2022/04/19 09:35:40;;;;;;;3.77;2.37;;;10.80;82.60;;;;;;4966625;28;20200;-82
2022/04/19 09:38:09;;;;;;;4.17;2.60;;;10.90;82.70;;;;;;4967286;28;20979;-83
2022/04/19 09:40:39;;;;;;;4.57;2.60;;;11.00;82.60;;;;;;4966605;28;20814;-84
2022/04/19 09:43:10;;;;;;;4.87;2.93;;;11.00;82.40;;;;;;4968765;28;20208;-85
2022/04/19 09:45:58;;;;;;;4.95;3.13;;;11.10;82.50;;;;;;4966948;28;20436;-80
2022/04/19 09:48:28;;;;;;;7.00;2.70;;;11.30;82.80;;;;;;4968486;28;20278;-82
2022/04/19 09:50:59;;;;;;;4.10;2.40;;;11.40;82.80;;;;;;4967133;28;20202;-84
2022/04/19 09:53:33;;;;;;;4.23;2.30;;;11.40;82.10;;;;;;4968720;28;20279;-82
2022/04/19 09:56:10;;;;;;;4.77;2.70;;;11.50;81.60;;;;;;4973670;28;20216;-84
2022/04/19 09:58:39;;;;;;;4.93;2.60;;;11.50;81.70;;;;;;4970842;28;20208;-83
2022/04/19 10:08:10;;;;;;;6.53;2.90;;;11.70;81.90;;;;;;4969003;28;20227;-81
2022/04/19 10:09:42;;;;;;;5.03;1.80;;;11.80;80.00;;;;;;4966245;28;20206;-81
2022/04/19 10:12:13;;;;;;;3.30;1.97;;;11.90;80.00;;;;;;4968964;28;20197;-83
2022/04/19 10:14:46;;;;;;;46.27;7.33;;;12.00;80.00;;;;;;4970524;28;20259;-85
2022/04/19 10:17:16;;;;;;;16.67;4.63;;;12.00;80.00;;;;;;4964491;28;20798;-81
2022/04/19 10:19:49;;;;;;;5.20;2.87;;;12.10;79.80;;;;;;4966268;28;20205;-80
2022/04/19 10:22:18;;;;;;;3.30;2.03;;;12.10;79.20;;;;;;4965389;28;20276;-82
2022/04/19 10:24:47;;;;;;;4.13;2.40;;;12.20;79.30;;;;;;4967275;28;20218;-81
2022/04/19 10:27:16;;;;;;;3.93;2.10;;;12.30;79.20;;;;;;4964571;28;20300;-83
2022/04/19 10:29:45;;;;;;;3.20;1.90;;;12.40;79.30;;;;;;4963274;28;20229;-82
2022/04/19 10:32:16;;;;;;;3.67;1.90;;;12.40;78.90;;;;;;4967960;28;20212;-81
2022/04/19 10:35:00;;;;;;;4.87;1.87;;;12.40;78.60;;;;;;4967549;28;20197;-82
2022/04/19 10:37:30;;;;;;;7.23;2.37;;;12.40;78.00;;;;;;4965104;28;20773;-81
2022/04/19 10:40:12;;;;;;;3.10;1.70;;;12.50;78.00;;;;;;4966044;28;20201;-81
2022/04/19 10:42:43;;;;;;;3.20;2.10;;;12.50;77.10;;;;;;4964857;28;20205;-82
2022/04/19 10:45:25;;;;;;;5.17;1.83;;;12.60;77.30;;;;;;4964861;28;20197;-80
2022/04/19 10:48:07;;;;;;;3.97;2.07;;;12.60;76.90;;;;;;4966714;28;20211;-79
2022/04/19 10:50:39;;;;;;;4.10;2.30;;;12.70;76.60;;;;;;4952689;28;20197;-79
2022/04/19 10:53:09;;;;;;;3.17;2.00;;;12.70;77.50;;;;;;4966135;28;20198;-78
2022/04/19 10:55:40;;;;;;;4.23;2.00;;;12.80;76.90;;;;;;4964617;28;20205;-77
2022/04/19 10:58:17;;;;;;;3.47;2.00;;;12.90;76.80;;;;;;4965720;28;20218;-77
2022/04/19 11:00:49;;;;;;;3.20;1.97;;;12.90;76.20;;;;;;4964576;28;20201;-78
2022/04/19 11:03:47;;;;;;;3.93;2.20;;;13.00;75.80;;;;;;4966625;28;20761;-77
2022/04/19 11:06:33;;;;;;;3.63;2.00;;;13.10;76.10;;;;;;4963175;28;20201;-79
2022/04/19 11:09:16;;;;;;;2.90;2.07;;;13.20;76.00;;;;;;4962563;28;20238;-78
2022/04/19 11:11:47;;;;;;;2.93;1.93;;;13.20;75.50;;;;;;4963586;28;20570;-82
2022/04/19 11:14:40;;;;;;;4.73;2.07;;;13.30;74.00;;;;;;4965783;28;20266;-80
2022/04/19 11:17:23;;;;;;;3.00;2.00;;;13.20;74.10;;;;;;4966327;28;20292;-77
2022/04/19 11:20:09;;;;;;;3.93;2.10;;;13.20;74.00;;;;;;4965946;28;20197;-78
2022/04/19 11:22:48;;;;;;;3.20;1.97;;;13.20;74.10;;;;;;4966986;28;20194;-76
2022/04/19 11:25:37;;;;;;;4.30;2.30;;;13.20;74.30;;;;;;4965584;28;20219;-76
2022/04/19 11:28:31;;;;;;;2.57;1.77;;;13.20;74.40;;;;;;4965550;28;20251;-76
2022/04/19 11:31:11;;;;;;;5.47;2.33;;;13.20;74.40;;;;;;4964671;28;20289;-77
2022/04/19 11:33:39;;;;;;;2.37;1.40;;;13.20;73.80;;;;;;4965630;28;20197;-78
2022/04/19 11:36:11;;;;;;;3.47;1.43;;;13.20;73.20;;;;;;4962936;28;20256;-75
2022/04/19 11:38:45;;;;;;;3.27;1.63;;;13.20;72.70;;;;;;4964939;28;20208;-77
2022/04/19 11:47:03;;;;;;;3.90;2.40;;;13.20;72.70;;;;;;4908663;28;20203;-79
2022/04/19 11:49:38;;;;;;;2.73;1.77;;;13.20;73.40;;;;;;4964551;28;21239;-80
2022/04/19 11:52:12;;;;;;;3.30;1.90;;;13.20;73.60;;;;;;4963511;28;20204;-78
2022/04/19 11:54:41;;;;;;;3.13;1.90;;;13.10;74.40;;;;;;4964363;28;20200;-77
2022/04/19 11:57:10;;;;;;;3.10;1.70;;;13.00;74.40;;;;;;4962140;28;20213;-77
2022/04/19 11:59:41;;;;;;;4.07;2.00;;;12.90;74.10;;;;;;4964287;28;20202;-77
2022/04/19 12:02:18;;;;;;;3.07;2.10;;;12.80;74.40;;;;;;4963203;28;20194;-76
2022/04/19 12:04:51;;;;;;;4.07;2.00;;;12.80;74.40;;;;;;4964149;28;20205;-77
2022/04/19 12:07:21;;;;;;;3.63;2.10;;;12.80;74.40;;;;;;4961873;28;20197;-76
2022/04/19 12:09:51;;;;;;;3.97;2.20;;;12.70;74.30;;;;;;4963188;28;20213;-77
2022/04/19 12:12:20;;;;;;;2.83;1.77;;;12.70;74.60;;;;;;4962910;28;20205;-76
2022/04/19 12:14:52;;;;;;;2.83;1.70;;;12.70;74.80;;;;;;4963601;28;20194;-77
2022/04/19 12:17:25;;;;;;;3.37;2.10;;;12.70;74.60;;;;;;4962317;28;20837;-77
2022/04/19 12:20:02;;;;;;;2.70;2.00;;;12.70;74.60;;;;;;4964183;28;20275;-77
2022/04/19 12:22:35;;;;;;;2.77;1.90;;;12.60;74.90;;;;;;4961801;28;20863;-77
2022/04/19 12:25:23;;;;;;;2.87;1.70;;;12.60;74.90;;;;;;5091048;27;21089;-79
2022/04/19 12:27:53;;;;;;;3.53;2.00;;;12.50;75.20;;;;;;5069094;28;20189;-77
2022/04/19 12:30:21;;;;;;;3.80;1.60;;;12.50;75.40;;;;;;5068256;28;20212;-78
2022/04/19 12:32:52;;;;;;;2.60;1.50;;;12.40;75.40;;;;;;5071705;28;20270;-77
2022/04/19 12:35:25;;;;;;;2.70;1.70;;;12.40;75.70;;;;;;5069574;28;20210;-78
2022/04/19 12:38:08;;;;;;;2.57;1.67;;;12.40;75.60;;;;;;5070913;28;20192;-78
2022/04/19 12:40:38;;;;;;;4.57;2.20;;;12.40;75.70;;;;;;5070877;28;20838;-79
2022/04/19 12:43:09;;;;;;;3.97;2.13;;;12.40;75.90;;;;;;5069564;28;20196;-78
2022/04/19 12:45:41;;;;;;;4.47;2.37;;;12.30;75.90;;;;;;5072525;28;20286;-80
2022/04/19 12:48:19;;;;;;;4.13;2.30;;;12.30;76.20;;;;;;5066364;28;20192;-78
2022/04/19 12:50:47;;;;;;;4.63;2.13;;;12.30;76.30;;;;;;5069142;28;20195;-78
2022/04/19 12:53:22;;;;;;;2.43;1.90;;;12.30;76.50;;;;;;5065225;28;20191;-81
2022/04/19 12:55:53;;;;;;;2.80;1.98;;;12.30;76.90;;;;;;5066091;28;20442;-81
2022/04/19 12:58:21;;;;;;;4.43;1.97;;;12.30;77.50;;;;;;5066985;28;20276;-82
2022/04/19 13:00:49;;;;;;;3.03;1.90;;;12.30;77.40;;;;;;5069787;28;20200;-82
2022/04/19 13:03:18;;;;;;;4.20;2.23;;;12.30;77.70;;;;;;5068865;28;20212;-80
2022/04/19 13:14:06;;;;;;;4.53;2.27;;;12.30;78.10;;;;;;5066784;28;20239;-80
2022/04/19 13:16:38;;;;;;;4.20;2.07;;;12.30;77.90;;;;;;5070401;28;20202;-82
2022/04/19 13:20:14;;;;;;;5.97;2.83;;;12.30;78.10;;;;;;5065807;28;20189;-83
2022/04/19 13:22:56;;;;;;;7.23;2.87;;;12.20;77.90;;;;;;5048351;28;20201;-85
2022/04/19 13:29:45;;;;;;;4.50;2.20;;;12.10;78.40;;;;;;5072805;28;20632;-80
2022/04/19 13:32:21;;;;;;;4.60;2.97;;;11.90;78.40;;;;;;5072726;28;20200;-83
2022/04/19 13:34:54;;;;;;;5.00;2.63;;;11.90;78.80;;;;;;5072140;28;20580;-84
2022/04/19 13:40:06;;;;;;;6.00;2.93;;;11.90;79.80;;;;;;5066502;28;20297;-82
2022/04/19 13:42:35;;;;;;;7.43;3.67;;;11.90;80.30;;;;;;5061262;28;20194;-80
2022/04/19 13:45:06;;;;;;;6.77;2.87;;;12.00;81.00;;;;;;5059488;28;20516;-83
2022/04/19 13:47:35;;;;;;;6.03;3.27;;;12.00;80.80;;;;;;5058886;28;20199;-82
2022/04/19 13:50:08;;;;;;;5.03;2.70;;;12.00;81.00;;;;;;5063202;28;20195;-81
2022/04/19 13:52:37;;;;;;;4.90;2.63;;;12.00;81.10;;;;;;5058521;28;20233;-79
2022/04/19 13:55:06;;;;;;;5.40;3.17;;;12.00;81.00;;;;;;5057271;28;20198;-82
2022/04/19 13:57:34;;;;;;;4.90;3.03;;;12.00;81.00;;;;;;5057648;28;20198;-82
2022/04/19 14:00:28;;;;;;;5.20;3.13;;;11.90;80.90;;;;;;5049053;28;20945;-87
2022/04/19 14:11:12;;;;;;;6.23;3.40;;;11.80;80.70;;;;;;4970439;28;20866;-84
2022/04/19 14:14:00;;;;;;;5.70;2.90;;;11.80;80.60;;;;;;4962440;28;20409;-84